CheckWX is a tool to help pilots better visualize weather data.  It is not intended as a substitute for an official pre-flight weather briefing.

12:23:26 UTC

CYHM METAR
John C. Munro Hamilton International Airport
Hamilton, Ontario, Canada
Current

15 mins ago

CYHM 181208Z 35009KT 1SM -SN DRSN VV025 M10/M12 A2993 RMK SN8 SLP152
Observed
Feb-18 @ 12:08 UTC
Wind
  • 350° at 9 KTS
Visibility
1 SM
Flight Rules
LIFR
Conditions
Light Snow, Low drifting Snow
Cloud Levels
  • Vertical visibility at 2,500' AGL
Temperature
-10°C / 14°F
Dewpoint
-12°C / 10°F
Humidity
85%
Altimeter
29.93" Hg
Pressure
1015.2 hPa
Previous

1 hour ago

CYHM 181100Z 35011KT 3SM -SN DRSN OVC027 M10/M11 A2989 RMK SC8 SLP137
Observed
Feb-18 @ 11:00 UTC
Wind
  • 350° at 11 KTS
Visibility
3 SM
Flight Rules
MVFR
Conditions
Light Snow, Low drifting Snow
Cloud Levels
  • Overcast at 2,700' AGL
Temperature
-10°C / 14°F
Dewpoint
-11°C / 12°F
Humidity
92%
Altimeter
29.89" Hg
Pressure
1013.7 hPa
Previous

2 hours ago

CYHM 181047Z 36010KT 3SM -SN DRSN FEW018 OVC040 M09/M11 A2988 RMK SF1SC7 SLP135
Observed
Feb-18 @ 10:47 UTC
Wind
  • 360° at 10 KTS
Visibility
3 SM
Flight Rules
MVFR
Conditions
Light Snow, Low drifting Snow
Cloud Levels
  • Few at 1,800' AGL
  • Overcast at 4,000' AGL
Temperature
-9°C / 16°F
Dewpoint
-11°C / 12°F
Humidity
86%
Altimeter
29.88" Hg
Pressure
1013.5 hPa